createdAt,value
2022-09-10T00:01:29.853Z,99.9
2022-09-10T00:06:32.108Z,99.9
2022-09-10T00:11:34.119Z,99.9
2022-09-10T00:16:36.282Z,99.9
2022-09-10T00:21:38.318Z,99.9
2022-09-10T00:26:40.977Z,99.9
2022-09-10T00:31:43.200Z,99.9
2022-09-10T00:36:45.782Z,99.9
2022-09-10T00:41:48.822Z,99.9
2022-09-10T00:46:50.849Z,99.9
2022-09-10T00:51:52.852Z,99.9
2022-09-10T00:56:55.313Z,99.9
2022-09-10T01:01:57.583Z,99.9
2022-09-10T01:07:00.506Z,99.9
2022-09-10T01:12:05.573Z,99.9
2022-09-10T01:17:07.495Z,99.9
2022-09-10T01:22:09.444Z,99.9
2022-09-10T01:27:11.553Z,99.9
2022-09-10T01:32:13.816Z,99.9
2022-09-10T01:37:16.390Z,99.9
2022-09-10T01:42:18.612Z,99.9
2022-09-10T01:47:20.588Z,99.9
2022-09-10T01:52:22.549Z,99.9
2022-09-10T01:57:24.486Z,99.9
2022-09-10T02:02:26.690Z,99.9
2022-09-10T02:07:29.332Z,99.9
2022-09-10T02:12:31.316Z,99.9
2022-09-10T02:17:33.500Z,99.9
2022-09-10T02:22:36.414Z,99.9
2022-09-10T02:27:38.403Z,99.9
2022-09-10T02:32:40.532Z,99.9
2022-09-10T02:37:42.457Z,99.9
2022-09-10T02:42:44.450Z,99.9
2022-09-10T02:47:46.487Z,99.9
2022-09-10T02:52:48.429Z,99.9
2022-09-10T02:57:50.744Z,99.9
2022-09-10T03:02:52.802Z,99.9
2022-09-10T03:07:54.971Z,99.9
2022-09-10T03:12:56.932Z,99.9
2022-09-10T03:17:59.039Z,99.9
2022-09-10T03:23:01.027Z,99.9
2022-09-10T03:28:03.123Z,99.9
2022-09-10T03:33:05.116Z,99.9
2022-09-10T03:38:07.076Z,99.9
2022-09-10T03:43:10.263Z,99.9
2022-09-10T03:48:12.238Z,99.9
2022-09-10T03:53:14.192Z,99.9
2022-09-10T03:58:16.208Z,99.9
2022-09-10T04:03:18.140Z,99.9
2022-09-10T04:08:20.315Z,99.9
2022-09-10T04:13:22.812Z,99.9
2022-09-10T04:18:27.849Z,99.9
2022-09-10T04:23:29.987Z,99.9
2022-09-10T04:28:32.272Z,99.9
2022-09-10T04:33:35.094Z,99.9
2022-09-10T04:38:37.698Z,99.9
2022-09-10T04:43:39.828Z,99.9
2022-09-10T04:48:42.559Z,99.9
2022-09-10T04:53:46.457Z,99.9
2022-09-10T04:58:49.572Z,99.9
2022-09-10T05:03:51.715Z,99.9
2022-09-10T05:08:53.883Z,99.9
2022-09-10T05:13:55.876Z,99.9
2022-09-10T05:18:57.809Z,99.9
2022-09-10T05:23:59.823Z,99.9
2022-09-10T05:29:01.759Z,99.9
2022-09-10T05:34:03.725Z,99.9
2022-09-10T05:39:05.814Z,99.9
2022-09-10T05:44:07.785Z,99.9
2022-09-10T05:49:09.781Z,99.9
2022-09-10T05:54:11.706Z,99.9
2022-09-10T05:59:14.224Z,99.9
2022-09-10T06:04:16.324Z,99.9
2022-09-10T06:09:18.461Z,99.9
2022-09-10T06:14:20.701Z,99.9
2022-09-10T06:19:28.988Z,99.9
2022-09-10T06:24:31.104Z,99.9
2022-09-10T06:29:33.620Z,99.9
2022-09-10T06:34:38.339Z,99.9
2022-09-10T06:39:41.023Z,99.9
2022-09-10T06:44:43.064Z,99.9
2022-09-10T06:49:45.178Z,99.9
2022-09-10T06:54:47.078Z,99.9
2022-09-10T06:59:49.195Z,99.9
2022-09-10T07:04:51.178Z,99.9
2022-09-10T07:09:53.339Z,99.9
2022-09-10T07:14:55.637Z,99.9
2022-09-10T07:19:57.864Z,99.9
2022-09-10T07:24:59.779Z,99.9
2022-09-10T07:30:02.248Z,99.9
2022-09-10T07:35:04.185Z,99.9
2022-09-10T07:40:07.459Z,99.9
2022-09-10T07:45:09.528Z,99.9
2022-09-10T07:50:11.771Z,99.9
2022-09-10T07:55:14.480Z,99.9
2022-09-10T08:00:16.479Z,99.9
2022-09-10T08:05:18.438Z,99.9
2022-09-10T08:10:21.313Z,99.9
2022-09-10T08:15:23.338Z,99.9
2022-09-10T08:20:25.422Z,99.9
2022-09-10T08:25:27.541Z,99.9
2022-09-10T08:30:29.517Z,99.9
2022-09-10T08:35:31.511Z,99.9
2022-09-10T08:40:34.219Z,99.9
2022-09-10T08:45:36.921Z,99.9
2022-09-10T08:50:38.918Z,99.9
2022-09-10T08:55:40.833Z,99.9
2022-09-10T09:00:42.870Z,99.9
2022-09-10T09:05:44.897Z,99.9
2022-09-10T09:10:47.664Z,99.9
2022-09-10T09:15:50.081Z,99.9
2022-09-10T09:20:52.021Z,99.9
2022-09-10T09:25:53.929Z,99.9
2022-09-10T09:30:56.025Z,99.9
2022-09-10T09:35:58.153Z,99.9
2022-09-10T09:41:00.807Z,99.9
2022-09-10T09:46:03.155Z,99.9
2022-09-10T09:51:05.194Z,99.9
2022-09-10T09:56:07.326Z,99.9
2022-09-10T10:01:09.877Z,99.9
2022-09-10T10:06:11.890Z,99.9
2022-09-10T10:11:14.008Z,99.9
2022-09-10T10:16:16.257Z,99.9
2022-09-10T10:21:18.235Z,99.9
2022-09-10T10:26:20.270Z,99.9
2022-09-10T10:31:22.514Z,99.9
2022-09-10T10:36:24.548Z,99.9
2022-09-10T10:41:26.564Z,99.9
2022-09-10T10:46:28.746Z,99.9
2022-09-10T10:56:31.646Z,99.9
2022-09-10T11:01:34.324Z,99.9
2022-09-10T11:06:36.321Z,99.9
2022-09-10T11:11:39.255Z,99.9
2022-09-10T11:16:43.315Z,99.9
2022-09-10T11:21:54.526Z,99.9
2022-09-10T11:26:51.889Z,98.7
2022-09-10T11:32:45.273Z,97.6
2022-09-10T11:37:00.573Z,99.2
2022-09-10T11:42:02.736Z,99.3
2022-09-10T11:47:04.699Z,97.6
2022-09-10T11:52:06.840Z,98.1
2022-09-10T11:57:08.818Z,97.9
2022-09-10T12:02:10.991Z,96.2
2022-09-10T12:07:13.065Z,95.7
2022-09-10T12:12:15.041Z,96.9
2022-09-10T12:17:17.009Z,96.8
2022-09-10T12:22:18.997Z,96.6
2022-09-10T12:27:21.004Z,96.6
2022-09-10T12:32:23.123Z,97.6
2022-09-10T12:37:25.064Z,97.9
2022-09-10T12:42:27.156Z,96.7
2022-09-10T12:47:29.145Z,97.2
2022-09-10T12:52:31.153Z,97.5
2022-09-10T12:57:33.179Z,97.9
2022-09-10T13:02:35.723Z,99.9
2022-09-10T13:07:38.103Z,99.9
2022-09-10T13:12:40.341Z,99.9
2022-09-10T13:17:42.751Z,99.9
2022-09-10T13:22:46.048Z,99.9
2022-09-10T13:28:15.944Z,99.9
2022-09-10T13:37:57.201Z,99.9
2022-09-10T13:42:59.413Z,99.9
2022-09-10T13:48:01.503Z,99.9
2022-09-10T13:53:03.720Z,99.9
2022-09-10T13:58:05.820Z,99.9
2022-09-10T14:03:08.095Z,99.9
2022-09-10T14:08:10.378Z,99.9
2022-09-10T14:13:12.714Z,99.9
2022-09-10T14:18:14.734Z,99.9
2022-09-10T14:23:17.543Z,99.9
2022-09-10T14:28:19.636Z,99.9
2022-09-10T14:33:23.366Z,99.9
2022-09-10T14:38:25.605Z,99.9
2022-09-10T14:43:27.788Z,99.9
2022-09-10T14:48:29.741Z,99.9
2022-09-10T14:53:31.932Z,99.9
2022-09-10T14:58:34.396Z,99.9
2022-09-10T15:03:36.535Z,99.9
2022-09-10T15:08:38.611Z,99.9
2022-09-10T15:13:41.387Z,99.9
2022-09-10T15:18:43.376Z,99.9
2022-09-10T15:23:45.850Z,99.9
2022-09-10T15:28:47.933Z,99.9
2022-09-10T15:33:49.967Z,99.9
2022-09-10T15:38:52.426Z,99.9
2022-09-10T15:43:56.809Z,99.9
2022-09-10T15:48:58.840Z,99.9
2022-09-10T15:54:07.258Z,99.9
2022-09-10T15:59:09.144Z,99.9
2022-09-10T16:04:11.340Z,99.9
2022-09-10T16:09:14.760Z,99.9
2022-09-10T16:14:17.386Z,99.9
2022-09-10T16:19:22.273Z,99.9
2022-09-10T16:24:25.414Z,99.9
2022-09-10T16:29:27.450Z,99.9
2022-09-10T16:34:29.432Z,99.9
2022-09-10T16:39:31.572Z,99.9
2022-09-10T16:44:33.693Z,99.9
2022-09-10T16:49:39.157Z,99.9
2022-09-10T16:54:42.474Z,99.9
2022-09-10T16:59:44.954Z,99.9
2022-09-10T17:04:48.800Z,99.9
2022-09-10T17:09:51.370Z,99.9
2022-09-10T17:14:53.348Z,99.9
2022-09-10T17:19:55.360Z,99.9
2022-09-10T17:24:57.810Z,99.9
2022-09-10T17:29:59.830Z,99.9
2022-09-10T17:35:01.866Z,99.9
2022-09-10T17:40:04.558Z,99.9
2022-09-10T17:45:09.659Z,99.9
2022-09-10T17:50:11.886Z,99.9
2022-09-10T17:55:13.866Z,99.9
2022-09-10T18:00:15.986Z,99.9
2022-09-10T18:05:18.035Z,99.9
2022-09-10T18:10:20.121Z,99.9
2022-09-10T18:15:22.085Z,99.9
2022-09-10T18:20:24.118Z,99.9
2022-09-10T18:25:26.545Z,99.9
2022-09-10T18:30:28.603Z,99.9
2022-09-10T18:35:30.703Z,99.9
2022-09-10T18:40:32.835Z,99.9
2022-09-10T18:45:34.962Z,99.9
2022-09-10T18:50:36.875Z,99.9
2022-09-10T18:55:39.242Z,99.9
2022-09-10T19:00:41.213Z,99.9
2022-09-10T19:05:43.164Z,99.9
2022-09-10T19:10:45.224Z,99.9
2022-09-10T19:15:47.438Z,99.9
2022-09-10T19:20:49.398Z,99.9
2022-09-10T19:25:51.356Z,99.9
2022-09-10T19:30:53.675Z,99.9
2022-09-10T19:35:59.093Z,99.9
2022-09-10T19:41:01.089Z,99.9
2022-09-10T19:46:03.382Z,99.9
2022-09-10T19:51:05.568Z,99.9
2022-09-10T19:56:07.614Z,99.9
2022-09-10T20:01:09.771Z,99.9
2022-09-10T20:06:11.733Z,99.9
2022-09-10T20:11:14.199Z,99.9
2022-09-10T20:16:16.468Z,99.9
2022-09-10T20:21:18.738Z,99.9
2022-09-10T20:26:21.443Z,99.9
2022-09-10T20:31:24.448Z,99.9
2022-09-10T20:36:26.652Z,99.9
2022-09-10T20:41:28.687Z,99.9
2022-09-10T20:46:31.039Z,99.9
2022-09-10T20:51:33.240Z,99.9
2022-09-10T20:56:35.383Z,99.9
2022-09-10T21:01:37.969Z,99.9
2022-09-10T21:06:39.985Z,99.9
2022-09-10T21:11:43.603Z,99.9
2022-09-10T21:16:45.624Z,99.9
2022-09-10T21:21:47.610Z,99.9
2022-09-10T21:26:50.007Z,99.9
2022-09-10T21:31:52.500Z,99.9
2022-09-10T21:36:54.506Z,99.9
2022-09-10T21:41:56.464Z,99.9
2022-09-10T21:46:58.472Z,99.9
2022-09-10T21:52:00.600Z,99.9
2022-09-10T21:57:02.540Z,99.9
2022-09-10T22:02:05.353Z,99.9
2022-09-10T22:07:07.430Z,99.9
2022-09-10T22:12:09.395Z,99.9
2022-09-10T22:17:11.866Z,99.9
2022-09-10T22:22:14.556Z,99.9
2022-09-10T22:27:16.617Z,99.9
2022-09-10T22:32:18.569Z,99.9
2022-09-10T22:37:20.515Z,99.9
2022-09-10T22:42:23.036Z,99.9
2022-09-10T22:47:25.312Z,99.9
2022-09-10T22:52:27.774Z,99.9
2022-09-10T22:57:29.788Z,99.9
2022-09-10T23:02:31.774Z,99.9
2022-09-10T23:07:33.799Z,99.9
2022-09-10T23:12:36.027Z,99.9
2022-09-10T23:17:37.970Z,99.9
2022-09-10T23:22:40.051Z,99.9
2022-09-10T23:27:42.071Z,99.9
2022-09-10T23:32:44.052Z,99.9
2022-09-10T23:37:46.013Z,99.9
2022-09-10T23:42:48.487Z,99.9
2022-09-10T23:47:50.719Z,99.9
2022-09-10T23:52:52.744Z,99.9
2022-09-10T23:57:54.874Z,99.9
